Time;durP1;ratioP1;P1;durP2;ratioP2;P2;SDS_P1;SDS_P2;PMS_P1;PMS_P2;Temp;Humidity;BMP_temperature;BMP_pressure;BME280_temperature;BME280_humidity;BME280_pressure;Samples;Min_cycle;Max_cycle;Signal;HPM_P1;HPM_P2
2022/09/09 00:02:22;;;;;;;3.55;2.83;;;;;;;;;;5072106;28;20057;-77
2022/09/09 00:05:14;;;;;;;4.10;2.85;;;;;;;;;;5090629;28;20022;-76
2022/09/09 00:07:50;;;;;;;;;;;;;;;;;;5063971;28;20692;-77
2022/09/09 00:10:32;;;;;;;2.35;2.15;;;;;;;;;;5072203;28;19912;-77
2022/09/09 00:13:23;;;;;;;4.38;2.28;;;;;;;;;;5072441;28;20070;-77
2022/09/09 00:15:59;;;;;;;3.38;2.40;;;;;;;;;;5052186;28;20060;-76
2022/09/09 00:18:39;;;;;;;3.90;2.70;;;;;;;;;;5073477;28;20544;-75
2022/09/09 00:21:17;;;;;;;5.70;2.80;;;;;;;;;;5079021;28;20024;-76
2022/09/09 00:23:55;;;;;;;2.90;2.60;;;;;;;;;;5098079;28;20368;-76
2022/09/09 00:26:34;;;;;;;4.18;2.47;;;;;;;;;;5079894;28;20048;-75
2022/09/09 00:29:23;;;;;;;3.30;2.78;;;;;;;;;;5078105;28;20052;-76
2022/09/09 00:31:51;;;;;;;5.68;2.78;;;;;;;;;;5094535;28;20081;-75
2022/09/09 00:34:24;;;;;;;4.53;2.55;;;;;;;;;;5075658;28;20043;-76
2022/09/09 00:36:52;;;;;;;5.78;2.67;;;;;;;;;;5076133;28;20024;-77
2022/09/09 00:39:39;;;;;;;6.93;2.80;;;;;;;;;;5075703;28;20024;-77
2022/09/09 00:42:23;;;;;;;7.20;2.50;;;;;;;;;;5075842;28;20093;-77
2022/09/09 00:44:53;;;;;;;4.88;3.30;;;;;;;;;;5076715;28;20106;-77
2022/09/09 00:47:39;;;;;;;2.80;2.55;;;;;;;;;;5095068;28;20129;-77
2022/09/09 00:50:32;;;;;;;5.70;3.00;;;;;;;;;;5094231;28;20023;-76
2022/09/09 00:53:19;;;;;;;3.67;2.42;;;;;;;;;;5075759;28;20512;-78
2022/09/09 00:55:53;;;;;;;3.75;2.38;;;;;;;;;;5076019;28;20086;-77
2022/09/09 00:58:19;;;;;;;3.80;2.70;;;;;;;;;;5093963;28;20024;-77
2022/09/09 01:00:50;;;;;;;3.33;2.58;;;;;;;;;;5075871;28;20080;-77
2022/09/09 01:03:45;;;;;;;3.30;2.70;;;;;;;;;;5093689;28;20032;-76
2022/09/09 01:06:33;;;;;;;4.00;2.50;;;;;;;;;;5070560;28;20032;-76
2022/09/09 01:09:10;;;;;;;4.78;2.30;;;;;;;;;;5074912;28;20147;-77
2022/09/09 01:12:11;;;;;;;2.65;2.45;;;;;;;;;;5075217;28;20027;-76
2022/09/09 01:14:36;;;;;;;3.33;2.60;;;;;;;;;;5093602;28;20480;-76
2022/09/09 01:17:34;;;;;;;3.92;2.30;;;;;;;;;;5093298;28;20036;-78
2022/09/09 01:20:22;;;;;;;26.50;10.75;;;;;;;;;;5074982;28;20471;-80
2022/09/09 01:23:00;;;;;;;3.65;2.75;;;;;;;;;;5075376;28;20400;-79
2022/09/09 01:25:31;;;;;;;8.27;3.20;;;;;;;;;;5093289;28;20595;-79
2022/09/09 01:28:04;;;;;;;3.78;2.55;;;;;;;;;;5075028;28;20036;-79
2022/09/09 01:30:31;;;;;;;5.50;2.28;;;;;;;;;;5074153;28;20052;-80
2022/09/09 01:33:00;;;;;;;4.32;2.55;;;;;;;;;;5074792;28;20036;-80
2022/09/09 01:35:50;;;;;;;3.65;2.58;;;;;;;;;;5075107;28;20023;-80
2022/09/09 01:38:17;;;;;;;2.75;2.33;;;;;;;;;;5074668;28;20024;-79
2022/09/09 01:40:43;;;;;;;5.63;2.40;;;;;;;;;;5058394;28;20131;-79
2022/09/09 01:43:10;;;;;;;2.67;2.42;;;;;;;;;;5093005;28;20039;-80
2022/09/09 01:45:36;;;;;;;6.38;3.90;;;;;;;;;;5074893;28;20028;-79
2022/09/09 01:48:03;;;;;;;3.92;2.58;;;;;;;;;;5074328;28;20107;-79
2022/09/09 01:50:28;;;;;;;3.88;2.50;;;;;;;;;;5074783;28;20024;-79
2022/09/09 01:52:58;;;;;;;2.80;2.60;;;;;;;;;;5074476;28;20425;-79
2022/09/09 01:55:31;;;;;;;4.65;2.85;;;;;;;;;;5092700;28;20089;-79
2022/09/09 01:58:51;;;;;;;5.28;2.75;;;;;;;;;;5092636;28;20320;-79
2022/09/09 02:01:42;;;;;;;3.58;2.80;;;;;;;;;;5013718;28;20064;-79
2022/09/09 02:04:24;;;;;;;2.58;2.38;;;;;;;;;;5075658;28;20089;-80
2022/09/09 02:06:54;;;;;;;4.85;2.63;;;;;;;;;;5075828;28;20088;-79
2022/09/09 02:09:23;;;;;;;3.35;2.67;;;;;;;;;;5092573;28;20020;-80
2022/09/09 02:11:58;;;;;;;4.55;3.25;;;;;;;;;;5092495;28;20479;-79
2022/09/09 02:14:40;;;;;;;3.63;2.38;;;;;;;;;;5074168;28;20127;-81
2022/09/09 02:17:10;;;;;;;2.97;2.67;;;;;;;;;;5057254;28;20101;-79
2022/09/09 02:19:49;;;;;;;5.07;2.90;;;;;;;;;;5074000;28;20036;-78
2022/09/09 02:22:18;;;;;;;4.50;2.67;;;;;;;;;;5073642;28;20016;-80
2022/09/09 02:24:45;;;;;;;4.50;2.50;;;;;;;;;;5046190;28;20051;-80
2022/09/09 02:27:13;;;;;;;5.05;2.67;;;;;;;;;;5053542;28;20372;-80
2022/09/09 02:29:41;;;;;;;5.15;3.15;;;;;;;;;;5053471;28;20045;-79
2022/09/09 02:32:14;;;;;;;6.22;2.80;;;;;;;;;;5053391;28;20074;-79
2022/09/09 02:34:46;;;;;;;3.10;2.75;;;;;;;;;;5054170;28;20031;-78
2022/09/09 02:37:14;;;;;;;3.67;2.90;;;;;;;;;;5053420;28;20139;-79
2022/09/09 02:39:40;;;;;;;3.25;2.67;;;;;;;;;;5053611;28;20028;-79
2022/09/09 02:42:06;;;;;;;4.25;2.78;;;;;;;;;;5071057;28;20381;-80
2022/09/09 02:44:32;;;;;;;9.55;2.90;;;;;;;;;;5053178;28;20021;-80
2022/09/09 02:47:32;;;;;;;3.40;2.95;;;;;;;;;;5053183;28;20035;-79
2022/09/09 02:50:22;;;;;;;5.93;3.33;;;;;;;;;;5072362;28;20024;-79
2022/09/09 02:53:10;;;;;;;9.00;3.17;;;;;;;;;;5071191;28;20037;-79
2022/09/09 02:55:38;;;;;;;5.35;2.67;;;;;;;;;;5052986;28;20024;-79
2022/09/09 02:58:08;;;;;;;2.92;2.63;;;;;;;;;;5052684;28;20123;-78
2022/09/09 03:00:35;;;;;;;4.55;2.65;;;;;;;;;;5070846;28;20052;-78
2022/09/09 03:03:03;;;;;;;5.88;3.15;;;;;;;;;;5052890;28;20028;-79
2022/09/09 03:05:29;;;;;;;3.83;3.15;;;;;;;;;;5036294;28;20097;-79
2022/09/09 03:07:54;;;;;;;4.40;3.45;;;;;;;;;;5052893;28;20028;-79
2022/09/09 03:10:20;;;;;;;13.32;7.72;;;;;;;;;;5070134;28;20028;-79
2022/09/09 03:12:47;;;;;;;6.85;3.78;;;;;;;;;;5070771;28;20027;-79
2022/09/09 03:15:14;;;;;;;5.50;3.85;;;;;;;;;;5052348;28;20707;-78
2022/09/09 03:17:40;;;;;;;4.57;3.05;;;;;;;;;;5054502;28;20039;-79
2022/09/09 03:20:07;;;;;;;3.60;3.05;;;;;;;;;;5052469;28;20504;-77
2022/09/09 03:22:33;;;;;;;5.22;2.97;;;;;;;;;;5052616;28;20082;-79
2022/09/09 03:24:58;;;;;;;7.63;3.28;;;;;;;;;;5083909;28;20028;-79
2022/09/09 03:27:23;;;;;;;11.95;3.60;;;;;;;;;;5090755;28;20035;-78
2022/09/09 03:29:50;;;;;;;3.95;2.85;;;;;;;;;;5072715;28;20065;-77
2022/09/09 03:32:17;;;;;;;3.30;2.95;;;;;;;;;;5090703;28;20043;-76
2022/09/09 03:34:43;;;;;;;7.00;3.05;;;;;;;;;;5090770;28;20024;-78
2022/09/09 03:37:08;;;;;;;2.90;2.38;;;;;;;;;;5072254;28;20511;-77
2022/09/09 03:39:34;;;;;;;7.35;3.90;;;;;;;;;;5090460;28;20035;-77
2022/09/09 03:42:03;;;;;;;4.72;3.42;;;;;;;;;;5072675;28;20016;-76
2022/09/09 03:44:30;;;;;;;8.82;3.40;;;;;;;;;;5072052;28;20077;-77
2022/09/09 03:46:55;;;;;;;3.00;2.65;;;;;;;;;;5090556;28;20016;-77
2022/09/09 03:49:22;;;;;;;3.65;3.35;;;;;;;;;;5072356;28;20028;-76
2022/09/09 03:51:47;;;;;;;4.20;3.40;;;;;;;;;;5072650;28;20503;-77
2022/09/09 03:54:12;;;;;;;6.10;3.05;;;;;;;;;;5089856;28;20032;-76
2022/09/09 03:56:39;;;;;;;8.85;4.50;;;;;;;;;;5072439;28;20503;-77
2022/09/09 03:59:04;;;;;;;4.78;3.40;;;;;;;;;;5072518;28;20031;-77
2022/09/09 04:01:30;;;;;;;5.20;3.42;;;;;;;;;;5072128;28;20020;-76
2022/09/09 04:03:58;;;;;;;3.33;2.95;;;;;;;;;;5072327;28;20026;-76
2022/09/09 04:06:24;;;;;;;8.55;3.83;;;;;;;;;;5090428;28;20523;-77
2022/09/09 04:08:51;;;;;;;6.57;3.35;;;;;;;;;;5092394;28;20024;-77
2022/09/09 04:11:17;;;;;;;3.88;3.47;;;;;;;;;;5073106;28;20561;-76
2022/09/09 04:13:44;;;;;;;4.50;3.28;;;;;;;;;;5072493;28;20055;-77
2022/09/09 04:16:12;;;;;;;4.82;3.20;;;;;;;;;;5090149;28;20387;-77
2022/09/09 04:18:38;;;;;;;3.53;3.22;;;;;;;;;;5072557;28;20498;-77
2022/09/09 04:21:06;;;;;;;4.72;3.17;;;;;;;;;;5090580;28;20028;-77
2022/09/09 04:23:33;;;;;;;3.30;3.00;;;;;;;;;;5071346;28;20103;-78
2022/09/09 04:26:00;;;;;;;7.78;3.97;;;;;;;;;;5070882;28;20025;-76
2022/09/09 04:28:28;;;;;;;5.88;3.47;;;;;;;;;;5071386;28;20032;-77
2022/09/09 04:30:56;;;;;;;9.30;4.00;;;;;;;;;;5054046;28;20052;-76
2022/09/09 04:33:25;;;;;;;3.72;2.92;;;;;;;;;;5054869;28;20044;-77
2022/09/09 04:35:53;;;;;;;6.13;3.03;;;;;;;;;;5056516;28;20024;-77
2022/09/09 04:38:19;;;;;;;3.55;2.97;;;;;;;;;;5056843;28;20384;-77
2022/09/09 04:40:49;;;;;;;5.35;3.08;;;;;;;;;;5073169;28;20025;-77
2022/09/09 04:43:15;;;;;;;7.95;4.32;;;;;;;;;;5053215;28;20025;-77
2022/09/09 04:45:42;;;;;;;6.20;3.40;;;;;;;;;;5070098;28;20381;-76
2022/09/09 04:48:09;;;;;;;9.02;3.88;;;;;;;;;;5052574;28;20035;-77
2022/09/09 04:50:35;;;;;;;10.30;3.38;;;;;;;;;;5053063;28;20020;-76
2022/09/09 04:53:04;;;;;;;4.32;3.78;;;;;;;;;;5070622;28;20031;-77
2022/09/09 04:55:31;;;;;;;10.23;4.00;;;;;;;;;;5051701;28;20031;-78
2022/09/09 04:57:57;;;;;;;7.28;4.85;;;;;;;;;;5070092;28;20032;-78
2022/09/09 05:00:24;;;;;;;6.13;3.63;;;;;;;;;;5051643;28;20788;-76
2022/09/09 05:02:49;;;;;;;4.43;3.50;;;;;;;;;;5069788;28;20427;-76
2022/09/09 05:05:15;;;;;;;10.25;4.18;;;;;;;;;;5051542;28;20040;-77
2022/09/09 05:07:41;;;;;;;5.78;3.42;;;;;;;;;;5055181;28;20021;-77
2022/09/09 05:10:07;;;;;;;5.43;3.40;;;;;;;;;;5073056;28;20043;-78
2022/09/09 05:12:33;;;;;;;7.93;4.13;;;;;;;;;;5055365;28;20025;-78
2022/09/09 05:14:58;;;;;;;4.70;3.67;;;;;;;;;;5054729;28;20135;-77
2022/09/09 05:17:24;;;;;;;3.63;3.30;;;;;;;;;;5055424;28;20178;-75
2022/09/09 05:19:50;;;;;;;6.10;4.78;;;;;;;;;;5090499;28;20075;-79
2022/09/09 05:22:22;;;;;;;4.68;4.28;;;;;;;;;;5065888;28;20032;-78
2022/09/09 05:24:50;;;;;;;8.15;3.83;;;;;;;;;;5074344;28;20027;-77
2022/09/09 05:27:19;;;;;;;5.95;3.22;;;;;;;;;;5070627;28;20032;-81
2022/09/09 05:29:45;;;;;;;5.45;3.55;;;;;;;;;;5059928;28;20060;-81
2022/09/09 05:32:11;;;;;;;7.57;3.75;;;;;;;;;;5074822;28;20027;-81
2022/09/09 05:34:39;;;;;;;4.40;3.40;;;;;;;;;;5075243;28;20020;-80
2022/09/09 05:37:05;;;;;;;4.63;4.00;;;;;;;;;;5076111;28;20029;-82
2022/09/09 05:39:30;;;;;;;53.92;8.70;;;;;;;;;;5075476;28;20028;-81
2022/09/09 05:41:56;;;;;;;17.65;4.82;;;;;;;;;;5093883;28;20028;-78
2022/09/09 05:44:23;;;;;;;8.57;3.67;;;;;;;;;;5074133;28;20233;-75
2022/09/09 05:46:50;;;;;;;10.77;4.22;;;;;;;;;;5073289;28;20031;-78
2022/09/09 05:49:16;;;;;;;8.35;3.70;;;;;;;;;;5092061;28;20380;-78
2022/09/09 05:51:42;;;;;;;5.25;3.70;;;;;;;;;;5090328;28;20460;-76
2022/09/09 05:54:08;;;;;;;5.40;4.30;;;;;;;;;;5091535;28;20027;-75
2022/09/09 05:56:40;;;;;;;4.15;3.63;;;;;;;;;;5090086;28;20460;-75
2022/09/09 05:59:06;;;;;;;;;;;;;;;;;;5080605;28;20051;-77
2022/09/09 06:01:35;;;;;;;8.45;4.10;;;;;;;;;;5072030;28;20311;-76
2022/09/09 06:04:00;;;;;;;6.53;3.92;;;;;;;;;;5091416;28;20028;-76
2022/09/09 06:06:31;;;;;;;4.13;3.33;;;;;;;;;;5056472;28;20130;-77
2022/09/09 06:08:59;;;;;;;5.32;3.75;;;;;;;;;;5037669;28;20052;-75
2022/09/09 06:11:32;;;;;;;6.53;4.13;;;;;;;;;;5053111;28;20032;-75
2022/09/09 06:13:58;;;;;;;8.50;4.03;;;;;;;;;;5054100;28;20028;-78
2022/09/09 06:16:26;;;;;;;5.93;3.45;;;;;;;;;;5037802;28;20354;-78
2022/09/09 06:18:54;;;;;;;5.60;3.92;;;;;;;;;;5076654;28;20040;-77
2022/09/09 06:21:23;;;;;;;6.40;3.30;;;;;;;;;;5059309;28;20034;-76
2022/09/09 06:23:54;;;;;;;5.95;3.58;;;;;;;;;;5081617;28;20082;-79
2022/09/09 06:26:22;;;;;;;4.70;3.28;;;;;;;;;;5067498;28;20039;-77
2022/09/09 06:28:49;;;;;;;5.20;3.15;;;;;;;;;;5073034;28;20028;-79
2022/09/09 06:31:17;;;;;;;4.28;3.40;;;;;;;;;;5068815;28;20140;-80
2022/09/09 06:33:44;;;;;;;4.72;3.70;;;;;;;;;;5053373;28;20399;-80
2022/09/09 06:36:22;;;;;;;4.13;3.35;;;;;;;;;;5071128;28;20046;-79
2022/09/09 06:38:48;;;;;;;9.82;4.38;;;;;;;;;;5073266;28;20750;-77
2022/09/09 06:41:16;;;;;;;4.68;3.80;;;;;;;;;;5067942;28;20115;-77
2022/09/09 06:43:42;;;;;;;3.90;3.50;;;;;;;;;;5057501;28;20436;-80
2022/09/09 06:46:13;;;;;;;6.13;3.38;;;;;;;;;;5053827;28;20081;-79
2022/09/09 06:48:44;;;;;;;4.75;3.65;;;;;;;;;;5054728;28;20039;-78
2022/09/09 06:51:23;;;;;;;5.43;3.15;;;;;;;;;;5064486;28;20126;-78
2022/09/09 06:53:54;;;;;;;5.07;3.28;;;;;;;;;;5068993;28;20032;-78
2022/09/09 06:56:29;;;;;;;3.85;3.45;;;;;;;;;;5052328;28;20480;-79
2022/09/09 06:59:00;;;;;;;4.32;3.58;;;;;;;;;;5068040;28;20085;-78
2022/09/09 07:01:28;;;;;;;3.80;3.30;;;;;;;;;;5071415;28;20092;-77
2022/09/09 07:03:58;;;;;;;5.93;3.45;;;;;;;;;;5071634;28;20035;-78
2022/09/09 07:06:30;;;;;;;3.80;3.10;;;;;;;;;;5090131;28;20024;-78
2022/09/09 07:08:58;;;;;;;5.28;3.72;;;;;;;;;;5072228;28;20031;-79
2022/09/09 07:11:26;;;;;;;4.70;3.10;;;;;;;;;;5067753;28;20508;-77
2022/09/09 07:13:53;;;;;;;3.95;3.42;;;;;;;;;;5069258;28;20035;-77
2022/09/09 07:16:20;;;;;;;5.20;3.00;;;;;;;;;;5072152;28;20020;-78
2022/09/09 07:18:46;;;;;;;4.03;3.20;;;;;;;;;;5071720;28;20620;-78
2022/09/09 07:21:13;;;;;;;8.43;3.70;;;;;;;;;;5070919;28;20030;-77
2022/09/09 07:23:39;;;;;;;6.07;3.35;;;;;;;;;;5089567;28;20020;-78
2022/09/09 07:26:13;;;;;;;7.57;3.50;;;;;;;;;;5071968;28;20023;-77
2022/09/09 07:28:39;;;;;;;4.03;2.90;;;;;;;;;;5069662;28;20025;-78
2022/09/09 07:31:05;;;;;;;5.80;3.42;;;;;;;;;;5071288;28;20024;-79
2022/09/09 07:33:34;;;;;;;5.03;3.08;;;;;;;;;;5071474;28;20023;-77
2022/09/09 07:36:05;;;;;;;7.15;3.53;;;;;;;;;;5069560;28;20489;-78
2022/09/09 07:38:30;;;;;;;6.15;3.10;;;;;;;;;;5065129;28;20074;-77
2022/09/09 07:41:05;;;;;;;3.78;2.80;;;;;;;;;;5059078;28;20036;-77
2022/09/09 07:43:31;;;;;;;10.10;3.40;;;;;;;;;;5065076;28;20039;-77
2022/09/09 07:46:03;;;;;;;3.20;2.90;;;;;;;;;;5064229;28;20028;-78
2022/09/09 07:48:29;;;;;;;7.80;2.90;;;;;;;;;;5081611;28;20036;-76
2022/09/09 07:51:11;;;;;;;5.97;4.40;;;;;;;;;;5081594;28;20347;-77
2022/09/09 07:53:38;;;;;;;8.85;2.83;;;;;;;;;;5060522;28;20028;-77
2022/09/09 07:56:06;;;;;;;2.60;2.35;;;;;;;;;;5079884;28;20024;-77
2022/09/09 07:58:32;;;;;;;3.85;2.30;;;;;;;;;;5060189;28;20032;-77
2022/09/09 08:00:57;;;;;;;3.80;2.60;;;;;;;;;;5051532;28;20520;-77
2022/09/09 08:03:23;;;;;;;3.92;2.85;;;;;;;;;;5061120;28;20028;-77
2022/09/09 08:05:49;;;;;;;2.45;2.25;;;;;;;;;;5063921;28;20036;-77
2022/09/09 08:08:16;;;;;;;4.13;2.80;;;;;;;;;;5063706;28;20036;-76
2022/09/09 08:10:42;;;;;;;7.75;2.58;;;;;;;;;;5080249;28;20031;-76
2022/09/09 08:13:09;;;;;;;4.53;3.03;;;;;;;;;;5058456;28;20032;-76
2022/09/09 08:15:34;;;;;;;4.20;2.35;;;;;;;;;;5064386;28;20111;-76
2022/09/09 08:17:59;;;;;;;2.58;2.10;;;;;;;;;;5063590;28;20169;-77
2022/09/09 08:20:25;;;;;;;2.97;2.28;;;;;;;;;;5082447;28;20016;-76
2022/09/09 08:22:51;;;;;;;5.00;3.00;;;;;;;;;;5062828;28;20104;-77
2022/09/09 08:25:16;;;;;;;4.75;3.35;;;;;;;;;;5064511;28;20024;-77
2022/09/09 08:27:42;;;;;;;3.13;2.10;;;;;;;;;;5083285;28;20032;-77
2022/09/09 08:30:08;;;;;;;3.05;2.40;;;;;;;;;;5063917;28;20055;-76
2022/09/09 08:32:35;;;;;;;6.32;3.38;;;;;;;;;;5062269;28;20035;-77
2022/09/09 08:35:00;;;;;;;6.15;2.58;;;;;;;;;;5065701;28;20028;-74
2022/09/09 08:37:26;;;;;;;3.50;2.53;;;;;;;;;;5065633;28;20433;-76
2022/09/09 08:39:52;;;;;;;5.20;2.80;;;;;;;;;;5066931;28;20075;-76
2022/09/09 08:42:56;;;;;;;9.90;2.88;;;;;;;;;;5072405;28;20023;-76
2022/09/09 08:45:34;;;;;;;4.38;2.53;;;;;;;;;;5024955;28;20048;-75
2022/09/09 08:48:19;;;;;;;6.22;2.72;;;;;;;;;;5077693;28;20028;-76
2022/09/09 08:50:48;;;;;;;5.63;2.05;;;;;;;;;;5081571;28;20051;-76
2022/09/09 08:53:22;;;;;;;5.78;3.10;;;;;;;;;;5081807;28;20032;-77
2022/09/09 08:55:58;;;;;;;6.22;2.83;;;;;;;;;;5080294;28;20043;-77
2022/09/09 08:58:33;;;;;;;3.70;2.40;;;;;;;;;;5090875;28;20340;-77
2022/09/09 09:01:36;;;;;;;5.68;2.50;;;;;;;;;;5066168;28;20024;-77
2022/09/09 09:04:27;;;;;;;5.47;2.50;;;;;;;;;;5067874;28;20425;-75
2022/09/09 09:07:17;;;;;;;7.35;2.78;;;;;;;;;;5068323;28;20127;-77
2022/09/09 09:09:58;;;;;;;6.55;2.95;;;;;;;;;;5065662;28;20027;-77
2022/09/09 09:12:27;;;;;;;7.63;2.97;;;;;;;;;;5066357;28;20068;-76
2022/09/09 09:14:55;;;;;;;5.82;3.72;;;;;;;;;;5067936;28;20069;-77
2022/09/09 09:17:23;;;;;;;7.20;3.22;;;;;;;;;;5068715;28;20442;-76
2022/09/09 09:19:52;;;;;;;3.88;2.80;;;;;;;;;;5067295;28;20087;-77
2022/09/09 09:22:21;;;;;;;2.65;2.42;;;;;;;;;;5065594;28;20023;-77
2022/09/09 09:25:20;;;;;;;7.55;2.33;;;;;;;;;;5066517;28;20066;-77
2022/09/09 09:28:00;;;;;;;6.05;2.50;;;;;;;;;;5068706;28;20092;-76
2022/09/09 09:30:31;;;;;;;3.45;2.67;;;;;;;;;;5066653;28;20526;-77
2022/09/09 09:33:08;;;;;;;6.40;2.60;;;;;;;;;;5082444;28;20552;-76
2022/09/09 09:35:34;;;;;;;6.03;2.17;;;;;;;;;;5065545;28;20117;-76
2022/09/09 09:38:00;;;;;;;5.95;3.08;;;;;;;;;;5068769;28;20486;-78
2022/09/09 09:40:26;;;;;;;8.75;2.83;;;;;;;;;;5065486;28;20147;-77
2022/09/09 09:43:01;;;;;;;2.72;2.17;;;;;;;;;;5064761;28;20192;-76
2022/09/09 09:45:41;;;;;;;11.07;4.78;;;;;;;;;;5083694;28;20034;-76
2022/09/09 09:48:11;;;;;;;9.80;3.72;;;;;;;;;;5066830;28;20024;-77
2022/09/09 09:50:56;;;;;;;5.07;2.55;;;;;;;;;;5064140;28;20078;-77
2022/09/09 09:53:28;;;;;;;4.95;2.10;;;;;;;;;;5061706;28;20031;-78
2022/09/09 09:55:56;;;;;;;;;;;;;;;;;;5083338;28;20032;-77
2022/09/09 09:58:21;;;;;;;3.20;1.67;;;;;;;;;;5066137;28;19919;-77
2022/09/09 10:00:49;;;;;;;4.20;1.67;;;;;;;;;;5065997;28;20038;-77
2022/09/09 10:03:40;;;;;;;3.63;2.13;;;;;;;;;;5063778;28;20036;-77
2022/09/09 10:06:06;;;;;;;3.08;1.55;;;;;;;;;;5066407;28;20115;-77
2022/09/09 10:08:45;;;;;;;6.70;1.60;;;;;;;;;;5062678;28;20159;-76
2022/09/09 10:11:33;;;;;;;4.45;1.27;;;;;;;;;;5065143;28;20046;-77
2022/09/09 10:14:33;;;;;;;8.32;1.80;;;;;;;;;;5066625;28;20646;-76
2022/09/09 10:17:21;;;;;;;2.58;1.25;;;;;;;;;;5067348;28;20020;-76
2022/09/09 10:20:37;;;;;;;3.70;1.40;;;;;;;;;;5065488;28;20036;-77
2022/09/09 10:23:10;;;;;;;3.05;1.17;;;;;;;;;;5037228;28;20121;-77
2022/09/09 10:25:50;;;;;;;4.57;1.50;;;;;;;;;;5065049;28;20081;-77
2022/09/09 10:28:34;;;;;;;2.42;1.30;;;;;;;;;;5066659;28;20027;-76
2022/09/09 10:31:09;;;;;;;3.90;1.33;;;;;;;;;;5083720;28;20032;-77
2022/09/09 10:34:13;;;;;;;3.65;1.60;;;;;;;;;;5080285;28;20032;-77
2022/09/09 10:36:48;;;;;;;2.95;1.40;;;;;;;;;;5079958;28;20016;-77
2022/09/09 10:39:17;;;;;;;4.80;3.67;;;;;;;;;;5065088;28;20057;-76
2022/09/09 10:41:51;;;;;;;8.50;1.70;;;;;;;;;;5061443;28;20059;-76
2022/09/09 10:44:49;;;;;;;3.47;1.10;;;;;;;;;;5083519;28;20225;-78
2022/09/09 10:47:38;;;;;;;5.68;1.45;;;;;;;;;;5066406;28;20048;-76
2022/09/09 10:50:13;;;;;;;3.58;1.35;;;;;;;;;;5066238;28;20027;-77
2022/09/09 10:52:48;;;;;;;4.13;1.10;;;;;;;;;;5080300;28;20028;-76
2022/09/09 10:55:18;;;;;;;3.03;1.75;;;;;;;;;;5065018;28;20063;-76
2022/09/09 10:57:58;;;;;;;3.72;1.00;;;;;;;;;;5065937;28;20154;-77
2022/09/09 11:00:25;;;;;;;5.38;1.67;;;;;;;;;;5083074;28;20027;-77
2022/09/09 11:03:04;;;;;;;2.72;1.23;;;;;;;;;;5063691;28;20107;-75
2022/09/09 11:05:44;;;;;;;5.80;1.60;;;;;;;;;;5065438;28;20111;-76
2022/09/09 11:08:22;;;;;;;3.55;1.20;;;;;;;;;;5083370;28;20020;-79
2022/09/09 11:11:12;;;;;;;2.80;1.10;;;;;;;;;;5054955;28;20139;-78
2022/09/09 11:13:56;;;;;;;7.85;2.05;;;;;;;;;;5070902;28;20032;-77
2022/09/09 11:16:29;;;;;;;2.28;1.02;;;;;;;;;;5063767;28;20023;-75
2022/09/09 11:19:02;;;;;;;2.65;1.42;;;;;;;;;;5066403;28;20469;-77
2022/09/09 11:21:43;;;;;;;4.90;1.50;;;;;;;;;;5061540;28;20036;-76
2022/09/09 11:24:33;;;;;;;1.55;1.10;;;;;;;;;;5062764;28;20024;-76
2022/09/09 11:27:25;;;;;;;9.00;2.60;;;;;;;;;;5075362;28;20040;-76
2022/09/09 11:30:06;;;;;;;3.42;1.15;;;;;;;;;;5078749;28;20040;-77
2022/09/09 11:33:01;;;;;;;4.30;1.23;;;;;;;;;;5089401;28;20035;-78
2022/09/09 11:36:07;;;;;;;3.97;0.90;;;;;;;;;;5072213;28;20138;-78
2022/09/09 11:39:14;;;;;;;5.25;1.45;;;;;;;;;;4988559;28;20038;-77
2022/09/09 11:41:39;;;;;;;3.67;1.08;;;;;;;;;;4997254;28;20062;-77
2022/09/09 11:44:12;;;;;;;3.95;1.55;;;;;;;;;;5090774;28;20063;-78
2022/09/09 11:46:41;;;;;;;7.68;1.77;;;;;;;;;;5089548;28;20027;-78
2022/09/09 11:49:27;;;;;;;4.40;1.55;;;;;;;;;;5071941;28;20032;-76
2022/09/09 11:51:55;;;;;;;4.32;1.88;;;;;;;;;;5072708;28;20032;-78
2022/09/09 11:54:31;;;;;;;5.50;2.05;;;;;;;;;;5090206;28;20149;-78
2022/09/09 11:56:58;;;;;;;8.80;1.65;;;;;;;;;;5055474;28;20024;-79
2022/09/09 11:59:26;;;;;;;4.22;1.67;;;;;;;;;;5071829;28;20085;-77
2022/09/09 12:02:01;;;;;;;4.07;2.15;;;;;;;;;;5072084;28;20068;-79
2022/09/09 12:04:31;;;;;;;6.45;3.15;;;;;;;;;;5070358;28;20020;-80
2022/09/09 12:07:21;;;;;;;13.30;3.40;;;;;;;;;;5052126;28;20032;-78
2022/09/09 12:09:49;;;;;;;11.07;2.13;;;;;;;;;;5069769;28;20044;-77
2022/09/09 12:12:15;;;;;;;8.90;2.67;;;;;;;;;;5051776;28;20489;-78
2022/09/09 12:14:40;;;;;;;16.13;2.90;;;;;;;;;;5069926;28;20031;-78
2022/09/09 12:17:20;;;;;;;6.82;2.17;;;;;;;;;;5055684;28;20028;-77
2022/09/09 12:19:45;;;;;;;13.82;3.40;;;;;;;;;;5059981;28;20882;-78
2022/09/09 12:22:22;;;;;;;13.63;4.53;;;;;;;;;;5056406;28;20223;-77
2022/09/09 12:25:29;;;;;;;11.75;5.03;;;;;;;;;;5066934;28;20021;-76
2022/09/09 12:28:01;;;;;;;7.10;3.65;;;;;;;;;;5073157;28;20110;-77
2022/09/09 12:31:07;;;;;;;9.93;3.70;;;;;;;;;;5072040;28;20079;-78
2022/09/09 12:33:45;;;;;;;8.75;4.07;;;;;;;;;;5071654;28;20033;-77
2022/09/09 12:36:16;;;;;;;11.73;4.22;;;;;;;;;;5072584;28;20086;-77
2022/09/09 12:38:43;;;;;;;5.53;2.17;;;;;;;;;;5072194;28;20483;-79
2022/09/09 12:41:26;;;;;;;3.78;2.13;;;;;;;;;;5072297;28;20158;-77
2022/09/09 12:44:05;;;;;;;9.95;3.22;;;;;;;;;;5073305;28;20078;-77
2022/09/09 12:46:46;;;;;;;12.00;2.67;;;;;;;;;;5072777;28;20040;-77
2022/09/09 12:49:34;;;;;;;16.73;4.45;;;;;;;;;;5073450;28;20421;-78
2022/09/09 12:52:06;;;;;;;11.10;3.60;;;;;;;;;;5073700;28;20016;-78
2022/09/09 12:54:34;;;;;;;3.40;2.22;;;;;;;;;;5059202;28;20099;-78
2022/09/09 12:57:00;;;;;;;10.55;3.55;;;;;;;;;;5086419;28;20035;-77
2022/09/09 12:59:37;;;;;;;6.88;1.83;;;;;;;;;;5091576;28;20025;-78
2022/09/09 13:02:19;;;;;;;3.53;1.65;;;;;;;;;;5097952;28;20050;-78
2022/09/09 13:04:46;;;;;;;7.00;1.65;;;;;;;;;;5076223;28;20052;-78
2022/09/09 13:07:13;;;;;;;4.80;1.50;;;;;;;;;;5057327;28;20107;-78
2022/09/09 13:09:39;;;;;;;7.18;2.28;;;;;;;;;;5053122;28;20021;-79
2022/09/09 13:12:07;;;;;;;6.88;2.13;;;;;;;;;;5054621;28;20056;-78
2022/09/09 13:14:39;;;;;;;6.93;2.17;;;;;;;;;;5051670;28;20088;-78
2022/09/09 13:17:05;;;;;;;;;;;;;;;;;;5052236;28;20488;-77
2022/09/09 13:19:36;;;;;;;9.27;4.03;;;;;;;;;;5051426;28;19947;-78
2022/09/09 13:22:19;;;;;;;10.55;3.80;;;;;;;;;;5051553;28;20024;-78
2022/09/09 13:24:45;;;;;;;6.78;3.42;;;;;;;;;;5051793;28;20036;-78
2022/09/09 13:27:41;;;;;;;14.15;6.22;;;;;;;;;;5068673;28;20028;-79
2022/09/09 13:30:39;;;;;;;25.95;10.70;;;;;;;;;;5055504;28;20037;-79
2022/09/09 13:33:11;;;;;;;25.50;11.77;;;;;;;;;;5072601;28;20040;-79
2022/09/09 13:35:59;;;;;;;21.08;10.07;;;;;;;;;;5072722;28;20047;-79
2022/09/09 13:38:27;;;;;;;16.67;9.63;;;;;;;;;;5073028;28;20044;-79
2022/09/09 13:40:57;;;;;;;17.27;12.00;;;;;;;;;;5071617;28;20119;-78
2022/09/09 13:43:25;;;;;;;26.10;16.00;;;;;;;;;;5073177;28;20024;-79
2022/09/09 13:45:55;;;;;;;14.77;8.57;;;;;;;;;;5071597;28;20113;-77
2022/09/09 13:48:20;;;;;;;11.50;9.60;;;;;;;;;;5072694;28;20024;-77
2022/09/09 13:51:05;;;;;;;9.88;6.35;;;;;;;;;;5070788;28;20032;-78
2022/09/09 13:53:31;;;;;;;9.88;5.13;;;;;;;;;;5072326;28;20023;-78
2022/09/09 13:55:58;;;;;;;8.40;4.40;;;;;;;;;;5071092;28;20054;-80
2022/09/09 13:58:25;;;;;;;11.52;5.75;;;;;;;;;;5072552;28;20126;-79
2022/09/09 14:00:52;;;;;;;5.05;3.70;;;;;;;;;;5070817;28;20020;-77
2022/09/09 14:03:18;;;;;;;7.80;4.07;;;;;;;;;;5071191;28;20078;-78
2022/09/09 14:05:45;;;;;;;6.47;3.13;;;;;;;;;;5071444;28;20028;-79
2022/09/09 14:08:24;;;;;;;13.90;4.97;;;;;;;;;;5072467;28;20355;-80
2022/09/09 14:10:51;;;;;;;6.82;3.03;;;;;;;;;;5070699;28;20028;-78
2022/09/09 14:13:17;;;;;;;7.32;3.13;;;;;;;;;;5071164;28;20032;-79
2022/09/09 14:15:43;;;;;;;9.30;4.45;;;;;;;;;;5071163;28;20035;-78
2022/09/09 14:18:11;;;;;;;13.70;3.97;;;;;;;;;;5071437;28;20074;-79
2022/09/09 14:20:37;;;;;;;7.85;2.95;;;;;;;;;;5071645;28;20082;-79
2022/09/09 14:23:04;;;;;;;6.22;3.17;;;;;;;;;;5054622;28;20033;-79
2022/09/09 14:25:31;;;;;;;9.48;3.83;;;;;;;;;;5070421;28;20029;-77
2022/09/09 14:27:57;;;;;;;7.70;2.90;;;;;;;;;;5070964;28;20035;-78
2022/09/09 14:30:22;;;;;;;10.93;2.55;;;;;;;;;;5070908;28;20428;-79
2022/09/09 14:32:48;;;;;;;3.00;1.50;;;;;;;;;;5070761;28;20034;-78
2022/09/09 14:35:13;;;;;;;3.17;1.50;;;;;;;;;;5071248;28;20534;-79
2022/09/09 14:37:41;;;;;;;2.78;1.35;;;;;;;;;;5071897;28;20047;-78
2022/09/09 14:40:07;;;;;;;3.47;2.03;;;;;;;;;;5071800;28;20032;-78
2022/09/09 14:42:33;;;;;;;3.88;1.60;;;;;;;;;;5070097;28;20158;-77
2022/09/09 14:44:58;;;;;;;11.52;4.35;;;;;;;;;;5070475;28;20127;-78
2022/09/09 14:47:24;;;;;;;7.80;2.08;;;;;;;;;;5071636;28;20032;-78
2022/09/09 14:49:49;;;;;;;3.97;1.60;;;;;;;;;;5072615;28;20024;-78
2022/09/09 14:52:16;;;;;;;5.68;1.85;;;;;;;;;;5070818;28;20120;-77
2022/09/09 14:54:41;;;;;;;7.15;3.80;;;;;;;;;;5072215;28;20031;-78
2022/09/09 14:57:07;;;;;;;9.07;2.92;;;;;;;;;;5070312;28;20028;-76
2022/09/09 14:59:32;;;;;;;8.27;2.00;;;;;;;;;;5070424;28;20063;-78
2022/09/09 15:02:00;;;;;;;8.07;2.35;;;;;;;;;;5070235;28;20044;-77
2022/09/09 15:04:25;;;;;;;5.68;2.03;;;;;;;;;;5070096;28;20039;-78
2022/09/09 15:06:53;;;;;;;5.85;2.00;;;;;;;;;;5069554;28;20032;-78
2022/09/09 15:09:18;;;;;;;8.32;1.70;;;;;;;;;;5070504;28;20040;-78
2022/09/09 15:11:44;;;;;;;8.15;1.42;;;;;;;;;;5069807;28;20062;-78
2022/09/09 15:14:09;;;;;;;5.22;1.60;;;;;;;;;;5071638;28;20037;-78
2022/09/09 15:16:35;;;;;;;6.40;1.50;;;;;;;;;;5071868;28;20029;-78